Time;durP1;ratioP1;P1;durP2;ratioP2;P2;SDS_P1;SDS_P2;PMS_P1;PMS_P2;Temp;Humidity;BMP_temperature;BMP_pressure;BME280_temperature;BME280_humidity;BME280_pressure;Samples;Min_cycle;Max_cycle;Signal;HPM_P1;HPM_P2
2022/10/08 00:00:25;;;;;;;12.68;11.88;;;;;;;;;;4983158;28;20692;-60
2022/10/08 00:02:52;;;;;;;13.82;12.82;;;;;;;;;;4980670;28;20027;-59
2022/10/08 00:05:17;;;;;;;13.38;12.57;;;;;;;;;;4980550;28;20074;-59
2022/10/08 00:07:44;;;;;;;14.60;13.60;;;;;;;;;;4993623;28;20038;-59
2022/10/08 00:10:10;;;;;;;14.82;13.93;;;;;;;;;;4980356;28;20031;-59
2022/10/08 00:12:35;;;;;;;15.93;15.00;;;;;;;;;;4977543;28;20114;-59
2022/10/08 00:15:01;;;;;;;15.02;14.13;;;;;;;;;;4976609;28;20122;-59
2022/10/08 00:17:27;;;;;;;14.00;13.20;;;;;;;;;;4976745;28;20038;-59
2022/10/08 00:19:53;;;;;;;13.98;13.18;;;;;;;;;;4980628;28;20034;-59
2022/10/08 00:22:18;;;;;;;15.30;14.40;;;;;;;;;;4979895;28;20042;-59
2022/10/08 00:24:45;;;;;;;15.80;14.90;;;;;;;;;;4976381;28;20042;-60
2022/10/08 00:27:11;;;;;;;14.85;13.95;;;;;;;;;;4983702;28;20057;-59
2022/10/08 00:29:36;;;;;;;15.27;14.40;;;;;;;;;;4980162;28;20512;-59
2022/10/08 00:32:02;;;;;;;15.73;14.82;;;;;;;;;;4978881;28;20043;-59
2022/10/08 00:34:28;;;;;;;15.90;14.60;;;;;;;;;;4981384;28;20038;-59
2022/10/08 00:36:54;;;;;;;16.08;15.18;;;;;;;;;;4979891;28;20031;-59
2022/10/08 00:39:22;;;;;;;16.83;15.82;;;;;;;;;;4979428;28;20081;-59
2022/10/08 00:41:51;;;;;;;16.48;15.55;;;;;;;;;;4976300;28;20039;-59
2022/10/08 00:44:55;;;;;;;15.57;14.68;;;;;;;;;;4980028;28;20106;-59
2022/10/08 00:47:32;;;;;;;16.13;15.23;;;;;;;;;;4982644;28;20030;-59
2022/10/08 00:50:15;;;;;;;15.73;14.82;;;;;;;;;;4982082;28;20157;-59
2022/10/08 00:52:57;;;;;;;16.23;15.27;;;;;;;;;;4976430;28;20089;-60
2022/10/08 00:55:26;;;;;;;17.88;16.67;;;;;;;;;;4979167;28;20026;-60
2022/10/08 00:57:54;;;;;;;17.00;15.93;;;;;;;;;;4980929;28;20041;-59
2022/10/08 01:00:22;;;;;;;17.55;16.55;;;;;;;;;;4976170;28;20035;-59
2022/10/08 01:02:48;;;;;;;16.55;15.55;;;;;;;;;;4970588;28;20038;-60
2022/10/08 01:05:16;;;;;;;17.08;15.82;;;;;;;;;;4981174;28;20404;-59
2022/10/08 01:08:03;;;;;;;18.80;17.70;;;;;;;;;;4978737;28;20077;-59
2022/10/08 01:10:52;;;;;;;17.38;16.38;;;;;;;;;;4977999;28;20034;-59
2022/10/08 01:13:34;;;;;;;16.63;15.52;;;;;;;;;;4977566;28;20139;-59
2022/10/08 01:16:40;;;;;;;16.52;15.60;;;;;;;;;;4979101;28;20046;-59
2022/10/08 01:19:19;;;;;;;17.83;16.73;;;;;;;;;;4944968;28;20496;-59
2022/10/08 01:21:59;;;;;;;16.75;15.82;;;;;;;;;;4975622;28;20089;-59
2022/10/08 01:27:22;;;;;;;17.02;16.00;;;;;;;;;;4975321;28;20063;-59
2022/10/08 01:29:48;;;;;;;18.30;17.10;;;;;;;;;;4978624;28;20034;-59
2022/10/08 01:32:25;;;;;;;17.35;16.33;;;;;;;;;;4978852;28;20200;-59
2022/10/08 01:34:59;;;;;;;17.67;15.85;;;;;;;;;;4979984;28;20035;-59
2022/10/08 01:37:30;;;;;;;16.95;15.95;;;;;;;;;;4978169;28;20034;-59
2022/10/08 01:39:59;;;;;;;16.90;15.90;;;;;;;;;;4980149;28;20038;-59
2022/10/08 01:42:27;;;;;;;18.30;17.20;;;;;;;;;;4981746;28;20034;-59
2022/10/08 01:45:03;;;;;;;16.73;15.73;;;;;;;;;;4980891;28;20026;-59
2022/10/08 01:47:29;;;;;;;16.65;15.73;;;;;;;;;;4979276;28;20049;-59
2022/10/08 01:50:06;;;;;;;16.88;15.88;;;;;;;;;;4979116;28;20423;-59
2022/10/08 01:52:39;;;;;;;17.33;16.33;;;;;;;;;;4980081;28;20048;-59
2022/10/08 01:55:15;;;;;;;16.55;15.57;;;;;;;;;;4980380;28;20627;-60
2022/10/08 01:57:41;;;;;;;17.05;15.85;;;;;;;;;;4978739;28;20023;-60
2022/10/08 02:00:12;;;;;;;18.00;17.00;;;;;;;;;;4981691;28;20043;-60
2022/10/08 02:02:39;;;;;;;18.05;16.98;;;;;;;;;;4977438;28;20034;-60
2022/10/08 02:05:05;;;;;;;17.52;16.45;;;;;;;;;;4976482;28;20041;-60
2022/10/08 02:07:35;;;;;;;16.65;15.50;;;;;;;;;;4978339;28;20085;-60
2022/10/08 02:10:11;;;;;;;17.08;15.88;;;;;;;;;;4976462;28;20035;-60
2022/10/08 02:12:39;;;;;;;19.70;18.15;;;;;;;;;;4978129;28;20054;-60
2022/10/08 02:15:07;;;;;;;15.82;14.93;;;;;;;;;;4979057;28;20030;-60
2022/10/08 02:17:42;;;;;;;18.35;17.25;;;;;;;;;;4976916;28;20063;-59
2022/10/08 02:20:29;;;;;;;18.27;17.27;;;;;;;;;;4974867;28;20038;-60
2022/10/08 02:23:02;;;;;;;16.33;15.40;;;;;;;;;;4976200;28;20223;-59
2022/10/08 02:25:39;;;;;;;16.20;15.20;;;;;;;;;;4974907;28;20128;-60
2022/10/08 02:28:30;;;;;;;18.10;17.00;;;;;;;;;;4979033;28;20037;-60
2022/10/08 02:31:01;;;;;;;15.55;14.65;;;;;;;;;;4975401;28;20134;-60
2022/10/08 02:33:51;;;;;;;16.17;15.27;;;;;;;;;;4977186;28;20039;-60
2022/10/08 02:36:24;;;;;;;15.30;14.35;;;;;;;;;;4980108;28;20038;-60
2022/10/08 02:38:56;;;;;;;15.70;14.77;;;;;;;;;;4976940;28;20037;-60
2022/10/08 02:41:27;;;;;;;15.38;14.48;;;;;;;;;;4978554;28;20065;-60
2022/10/08 02:43:56;;;;;;;14.52;13.65;;;;;;;;;;4979762;28;20044;-60
2022/10/08 02:46:26;;;;;;;14.45;13.65;;;;;;;;;;4979392;28;20042;-60
2022/10/08 02:48:59;;;;;;;13.55;12.70;;;;;;;;;;4973911;28;20038;-60
2022/10/08 02:51:26;;;;;;;16.02;15.10;;;;;;;;;;4973953;28;20365;-59
2022/10/08 02:53:52;;;;;;;14.57;13.68;;;;;;;;;;4975402;28;20074;-60
2022/10/08 02:56:45;;;;;;;13.68;12.88;;;;;;;;;;4973608;28;20428;-60
2022/10/08 02:59:13;;;;;;;12.82;12.02;;;;;;;;;;4974339;28;20030;-60
2022/10/08 03:01:44;;;;;;;13.77;12.88;;;;;;;;;;4974530;28;20045;-60
2022/10/08 03:04:16;;;;;;;11.98;11.27;;;;;;;;;;4981071;28;20141;-60
2022/10/08 03:06:42;;;;;;;13.93;13.13;;;;;;;;;;4976293;28;20411;-60
2022/10/08 03:09:11;;;;;;;13.63;12.82;;;;;;;;;;4973746;28;20030;-60
2022/10/08 03:11:37;;;;;;;14.00;13.15;;;;;;;;;;4978132;28;20026;-60
2022/10/08 03:14:07;;;;;;;12.43;11.68;;;;;;;;;;4977509;28;20171;-60
2022/10/08 03:16:39;;;;;;;12.70;12.00;;;;;;;;;;4980977;28;20054;-60
2022/10/08 03:19:06;;;;;;;12.93;12.13;;;;;;;;;;4973657;28;20038;-60
2022/10/08 03:21:32;;;;;;;13.05;12.25;;;;;;;;;;4978098;28;20472;-60
2022/10/08 03:23:57;;;;;;;13.75;12.85;;;;;;;;;;4978402;28;20045;-60
2022/10/08 03:26:23;;;;;;;13.43;12.63;;;;;;;;;;4976996;28;20035;-60
2022/10/08 03:28:52;;;;;;;11.85;11.15;;;;;;;;;;4977972;28;20034;-59
2022/10/08 03:31:17;;;;;;;13.07;11.98;;;;;;;;;;4976527;28;20335;-59
2022/10/08 03:33:43;;;;;;;12.70;11.90;;;;;;;;;;4976216;28;20042;-59
2022/10/08 03:36:08;;;;;;;13.43;12.35;;;;;;;;;;4974370;28;20641;-59
2022/10/08 03:38:34;;;;;;;12.60;10.90;;;;;;;;;;4974297;28;20022;-59
2022/10/08 03:40:59;;;;;;;12.68;11.88;;;;;;;;;;4978526;28;20027;-59
2022/10/08 03:43:31;;;;;;;11.35;10.65;;;;;;;;;;4971469;28;20198;-60
2022/10/08 03:45:56;;;;;;;12.57;11.80;;;;;;;;;;4976871;28;20480;-60
2022/10/08 03:48:22;;;;;;;10.20;9.52;;;;;;;;;;4977611;28;20093;-60
2022/10/08 03:50:56;;;;;;;11.73;10.93;;;;;;;;;;4977791;28;20065;-60
2022/10/08 03:53:23;;;;;;;11.05;10.10;;;;;;;;;;4974639;28;20042;-60
2022/10/08 03:55:48;;;;;;;10.95;10.15;;;;;;;;;;4978265;28;20045;-59
2022/10/08 03:58:14;;;;;;;11.02;10.32;;;;;;;;;;4978476;28;20034;-60
2022/10/08 04:00:40;;;;;;;10.30;9.60;;;;;;;;;;4974592;28;20496;-60
2022/10/08 04:03:06;;;;;;;9.50;8.90;;;;;;;;;;4978610;28;20045;-60
2022/10/08 04:05:31;;;;;;;9.77;9.18;;;;;;;;;;4977122;28;20125;-60
2022/10/08 04:07:57;;;;;;;11.27;10.57;;;;;;;;;;4975342;28;20657;-60
2022/10/08 04:10:22;;;;;;;9.80;9.18;;;;;;;;;;4975243;28;20110;-60
2022/10/08 04:12:47;;;;;;;9.90;9.30;;;;;;;;;;4977471;28;20034;-60
2022/10/08 04:15:13;;;;;;;9.77;9.18;;;;;;;;;;4977778;28;20105;-60
2022/10/08 04:17:41;;;;;;;9.73;9.13;;;;;;;;;;4977312;28;20076;-60
2022/10/08 04:20:08;;;;;;;8.93;8.23;;;;;;;;;;4974928;28;20062;-60
2022/10/08 04:22:33;;;;;;;8.85;8.25;;;;;;;;;;4974520;28;20042;-60
2022/10/08 04:24:59;;;;;;;7.47;6.97;;;;;;;;;;4973575;28;20031;-60
2022/10/08 04:27:24;;;;;;;7.72;7.22;;;;;;;;;;4978854;28;20043;-60
2022/10/08 04:29:49;;;;;;;7.40;6.90;;;;;;;;;;4976028;28;20034;-60
2022/10/08 04:32:15;;;;;;;7.55;7.05;;;;;;;;;;4976092;28;20050;-60
2022/10/08 04:34:40;;;;;;;7.68;7.07;;;;;;;;;;4978880;28;20030;-60
2022/10/08 04:37:05;;;;;;;7.80;7.30;;;;;;;;;;4978411;28;20640;-60
2022/10/08 04:39:31;;;;;;;8.23;7.65;;;;;;;;;;4978833;28;20106;-60
2022/10/08 04:41:56;;;;;;;7.78;7.28;;;;;;;;;;4977004;28;20073;-59
2022/10/08 04:44:22;;;;;;;7.22;6.72;;;;;;;;;;4978723;28;20035;-59
2022/10/08 04:46:47;;;;;;;7.38;6.88;;;;;;;;;;4979635;28;20077;-59
2022/10/08 04:49:12;;;;;;;8.27;7.68;;;;;;;;;;4982042;28;20038;-59
2022/10/08 04:51:38;;;;;;;7.88;7.32;;;;;;;;;;4979809;28;20110;-59
2022/10/08 04:54:03;;;;;;;7.32;6.82;;;;;;;;;;4978818;28;20034;-60
2022/10/08 04:56:31;;;;;;;7.32;6.82;;;;;;;;;;4980440;28;20032;-59
2022/10/08 04:58:58;;;;;;;8.52;7.88;;;;;;;;;;4978309;28;20515;-60
2022/10/08 05:01:25;;;;;;;7.68;7.07;;;;;;;;;;4982755;28;20181;-60
2022/10/08 05:03:53;;;;;;;8.23;7.63;;;;;;;;;;4977584;28;20037;-61
2022/10/08 05:06:21;;;;;;;7.50;7.00;;;;;;;;;;4977090;28;20667;-61
2022/10/08 05:08:48;;;;;;;8.40;7.80;;;;;;;;;;4978516;28;20061;-61
2022/10/08 05:11:14;;;;;;;8.80;8.20;;;;;;;;;;4981250;28;20494;-60
2022/10/08 05:13:40;;;;;;;8.48;7.88;;;;;;;;;;4979759;28;20030;-60
2022/10/08 05:16:08;;;;;;;9.02;8.20;;;;;;;;;;4976611;28;20501;-60
2022/10/08 05:18:35;;;;;;;6.90;6.40;;;;;;;;;;4978543;28;20041;-60
2022/10/08 05:21:06;;;;;;;7.88;7.38;;;;;;;;;;4978740;28;20070;-60
2022/10/08 05:23:32;;;;;;;7.55;7.00;;;;;;;;;;4981171;28;20081;-61
2022/10/08 05:25:57;;;;;;;7.55;7.05;;;;;;;;;;4978493;28;20560;-60
2022/10/08 05:28:22;;;;;;;8.70;8.00;;;;;;;;;;4983098;28;20070;-60
2022/10/08 05:30:48;;;;;;;14.77;6.75;;;;;;;;;;4978552;28;20031;-60
2022/10/08 05:33:13;;;;;;;7.32;6.82;;;;;;;;;;4978698;28;20042;-60
2022/10/08 05:35:38;;;;;;;7.18;6.68;;;;;;;;;;4975793;28;20026;-61
2022/10/08 05:38:04;;;;;;;7.32;6.72;;;;;;;;;;4977496;28;20037;-61
2022/10/08 05:40:29;;;;;;;7.35;6.78;;;;;;;;;;4974154;28;20069;-62
2022/10/08 05:42:55;;;;;;;7.15;6.55;;;;;;;;;;4977311;28;20038;-61
2022/10/08 05:45:21;;;;;;;7.35;6.85;;;;;;;;;;4979064;28;20404;-61
2022/10/08 05:47:47;;;;;;;7.57;7.07;;;;;;;;;;4975804;28;20126;-61
2022/10/08 05:50:13;;;;;;;8.32;7.63;;;;;;;;;;4981474;28;20114;-60
2022/10/08 05:52:38;;;;;;;8.77;8.18;;;;;;;;;;4979221;28;20469;-60
2022/10/08 05:55:04;;;;;;;7.18;6.68;;;;;;;;;;4975699;28;20042;-60
2022/10/08 05:57:29;;;;;;;7.55;7.05;;;;;;;;;;4991707;28;20036;-60
2022/10/08 05:59:54;;;;;;;7.75;7.15;;;;;;;;;;4977087;28;20125;-60
2022/10/08 06:02:20;;;;;;;8.60;7.75;;;;;;;;;;4979728;28;20108;-60
2022/10/08 06:04:48;;;;;;;7.72;7.22;;;;;;;;;;4977612;28;20113;-60
2022/10/08 06:07:13;;;;;;;7.05;6.55;;;;;;;;;;4979976;28;20034;-60
2022/10/08 06:09:39;;;;;;;7.25;6.75;;;;;;;;;;4978431;28;20037;-60
2022/10/08 06:12:05;;;;;;;7.85;7.28;;;;;;;;;;4977729;28;20035;-60
2022/10/08 06:14:30;;;;;;;7.00;6.50;;;;;;;;;;4981172;28;20051;-60
2022/10/08 06:16:56;;;;;;;7.95;7.38;;;;;;;;;;4979734;28;20449;-60
2022/10/08 06:19:21;;;;;;;6.72;6.22;;;;;;;;;;4980954;28;20428;-60
2022/10/08 06:21:47;;;;;;;6.70;6.20;;;;;;;;;;4976815;28;20069;-60
2022/10/08 06:24:13;;;;;;;8.40;7.80;;;;;;;;;;4977169;28;20045;-60
2022/10/08 06:26:40;;;;;;;7.75;7.22;;;;;;;;;;4979063;28;20157;-60
2022/10/08 06:29:13;;;;;;;7.00;6.50;;;;;;;;;;4977289;28;20029;-61
2022/10/08 06:31:38;;;;;;;7.50;6.93;;;;;;;;;;4976514;28;20073;-59
2022/10/08 06:34:04;;;;;;;7.93;7.38;;;;;;;;;;4975763;28;20062;-60
2022/10/08 06:36:31;;;;;;;8.38;7.55;;;;;;;;;;4964114;28;20022;-60
2022/10/08 06:39:02;;;;;;;7.53;7.03;;;;;;;;;;4978000;28;20035;-61
2022/10/08 06:41:33;;;;;;;7.35;6.85;;;;;;;;;;4976612;28;20026;-60
2022/10/08 06:43:59;;;;;;;7.10;6.60;;;;;;;;;;4976926;28;20066;-61
2022/10/08 06:46:25;;;;;;;7.88;7.32;;;;;;;;;;4976202;28;20031;-60
2022/10/08 06:48:50;;;;;;;7.57;6.97;;;;;;;;;;4975460;28;20054;-61
2022/10/08 06:51:18;;;;;;;8.82;7.15;;;;;;;;;;4976290;28;20408;-60
2022/10/08 06:53:44;;;;;;;7.60;7.10;;;;;;;;;;4978959;28;20104;-60
2022/10/08 06:56:16;;;;;;;8.55;7.95;;;;;;;;;;4977968;28;20045;-60
2022/10/08 06:58:43;;;;;;;7.53;7.03;;;;;;;;;;4976025;28;20069;-60
2022/10/08 07:01:20;;;;;;;8.48;7.80;;;;;;;;;;4974978;28;20039;-60
2022/10/08 07:03:51;;;;;;;8.45;7.85;;;;;;;;;;4977513;28;20070;-62
2022/10/08 07:06:16;;;;;;;9.20;8.40;;;;;;;;;;4976917;28;20680;-63
2022/10/08 07:08:42;;;;;;;9.30;8.48;;;;;;;;;;4976317;28;20161;-62
2022/10/08 07:11:13;;;;;;;8.85;8.25;;;;;;;;;;4977317;28;20412;-62
2022/10/08 07:13:39;;;;;;;9.38;8.77;;;;;;;;;;4977398;28;20472;-62
2022/10/08 07:16:07;;;;;;;12.02;11.00;;;;;;;;;;4974311;28;20052;-62
2022/10/08 07:18:34;;;;;;;11.02;10.32;;;;;;;;;;4974711;28;20022;-62
2022/10/08 07:21:00;;;;;;;11.82;11.02;;;;;;;;;;4977542;28;20057;-62
2022/10/08 07:23:25;;;;;;;11.43;10.73;;;;;;;;;;4975146;28;20026;-62
2022/10/08 07:26:02;;;;;;;10.80;10.10;;;;;;;;;;4977315;28;20057;-62
2022/10/08 07:28:30;;;;;;;11.75;11.05;;;;;;;;;;4976374;28;20027;-62
2022/10/08 07:30:55;;;;;;;12.80;12.00;;;;;;;;;;4973694;28;20042;-63
2022/10/08 07:33:21;;;;;;;13.13;12.32;;;;;;;;;;4977654;28;20115;-63
2022/10/08 07:35:47;;;;;;;14.50;13.70;;;;;;;;;;4979351;28;20039;-63
2022/10/08 07:38:17;;;;;;;13.75;12.75;;;;;;;;;;4978390;28;20031;-63
2022/10/08 07:40:43;;;;;;;12.95;12.15;;;;;;;;;;4975430;28;20048;-63
2022/10/08 07:43:08;;;;;;;13.20;12.40;;;;;;;;;;4978056;28;20066;-63
2022/10/08 07:45:34;;;;;;;13.85;12.75;;;;;;;;;;4977861;28;20073;-62
2022/10/08 07:48:00;;;;;;;14.50;13.60;;;;;;;;;;4979422;28;20135;-63
2022/10/08 07:50:25;;;;;;;14.60;13.70;;;;;;;;;;4976979;28;20037;-64
2022/10/08 07:52:51;;;;;;;12.45;11.75;;;;;;;;;;4977873;28;20035;-61
2022/10/08 07:55:16;;;;;;;12.00;11.30;;;;;;;;;;4980990;28;20533;-64
2022/10/08 07:57:41;;;;;;;12.88;12.07;;;;;;;;;;4977635;28;20528;-63
2022/10/08 08:00:07;;;;;;;12.82;12.05;;;;;;;;;;4975473;28;20109;-62
2022/10/08 08:02:33;;;;;;;10.25;9.65;;;;;;;;;;4978589;28;20622;-64
2022/10/08 08:04:58;;;;;;;10.57;9.93;;;;;;;;;;4978850;28;20046;-65
2022/10/08 08:07:24;;;;;;;13.38;12.48;;;;;;;;;;4978387;28;20026;-66
2022/10/08 08:09:49;;;;;;;9.48;8.68;;;;;;;;;;4975229;28;20085;-66
2022/10/08 08:12:15;;;;;;;8.25;7.72;;;;;;;;;;4979905;28;20038;-66
2022/10/08 08:14:40;;;;;;;10.38;9.52;;;;;;;;;;4977572;28;20039;-65
2022/10/08 08:17:05;;;;;;;7.75;7.25;;;;;;;;;;4978049;28;20620;-64
2022/10/08 08:19:31;;;;;;;6.35;5.93;;;;;;;;;;4978723;28;20109;-66
2022/10/08 08:21:56;;;;;;;6.35;5.85;;;;;;;;;;4977164;28;20030;-68
2022/10/08 08:24:22;;;;;;;6.47;6.03;;;;;;;;;;4979170;28;20050;-67
2022/10/08 08:26:48;;;;;;;7.50;6.90;;;;;;;;;;4983770;28;20065;-67
2022/10/08 08:29:16;;;;;;;9.55;6.35;;;;;;;;;;4978386;28;20644;-67
2022/10/08 08:31:43;;;;;;;7.00;6.50;;;;;;;;;;4981124;28;20070;-66
2022/10/08 08:34:11;;;;;;;6.95;6.45;;;;;;;;;;4981410;28;20038;-66
2022/10/08 08:36:40;;;;;;;5.80;5.40;;;;;;;;;;4983580;28;20033;-65
2022/10/08 08:39:16;;;;;;;6.97;6.38;;;;;;;;;;4979146;28;20034;-66
2022/10/08 08:42:16;;;;;;;7.05;6.55;;;;;;;;;;4982799;28;20118;-68
2022/10/08 08:44:47;;;;;;;8.93;8.13;;;;;;;;;;4981473;28;20039;-66
2022/10/08 08:47:28;;;;;;;6.90;6.40;;;;;;;;;;4981324;28;20056;-67
2022/10/08 08:49:57;;;;;;;7.40;6.80;;;;;;;;;;4982520;28;20053;-65
2022/10/08 08:52:26;;;;;;;7.55;6.60;;;;;;;;;;4982269;28;20471;-67
2022/10/08 08:54:53;;;;;;;7.55;6.85;;;;;;;;;;4979012;28;20322;-66
2022/10/08 08:57:47;;;;;;;6.85;6.35;;;;;;;;;;4979702;28;20467;-66
2022/10/08 09:00:19;;;;;;;6.30;5.88;;;;;;;;;;4980051;28;20092;-65
2022/10/08 09:02:56;;;;;;;6.93;6.43;;;;;;;;;;4981652;28;20043;-66
2022/10/08 09:05:23;;;;;;;6.00;5.60;;;;;;;;;;4981425;28;20053;-66
2022/10/08 09:07:56;;;;;;;7.18;6.68;;;;;;;;;;4980264;28;20030;-66
2022/10/08 09:10:33;;;;;;;6.40;6.00;;;;;;;;;;4977720;28;20109;-66
2022/10/08 09:13:01;;;;;;;6.15;5.65;;;;;;;;;;4976478;28;20061;-65
2022/10/08 09:15:33;;;;;;;9.55;7.10;;;;;;;;;;4981021;28;20034;-67
2022/10/08 09:18:01;;;;;;;6.20;5.75;;;;;;;;;;4995143;28;20108;-67
2022/10/08 09:20:28;;;;;;;6.03;5.63;;;;;;;;;;4978035;28;20026;-66
2022/10/08 09:22:54;;;;;;;5.70;5.30;;;;;;;;;;4978420;28;20045;-66
2022/10/08 09:25:22;;;;;;;8.43;6.05;;;;;;;;;;4981466;28;20037;-67
2022/10/08 09:27:56;;;;;;;6.32;5.93;;;;;;;;;;4981169;28;20049;-66
2022/10/08 09:30:26;;;;;;;6.30;5.90;;;;;;;;;;4979314;28;20043;-67
2022/10/08 09:32:52;;;;;;;6.20;5.80;;;;;;;;;;4979754;28;20039;-67
2022/10/08 09:35:18;;;;;;;6.60;6.10;;;;;;;;;;4977302;28;20034;-67
2022/10/08 09:37:45;;;;;;;6.80;6.30;;;;;;;;;;4976427;28;20052;-64
2022/10/08 09:40:11;;;;;;;6.78;6.28;;;;;;;;;;4979211;28;20034;-64
2022/10/08 09:42:36;;;;;;;7.05;6.55;;;;;;;;;;4983144;28;20162;-65
2022/10/08 09:45:23;;;;;;;7.35;6.80;;;;;;;;;;4976753;28;20520;-64
2022/10/08 09:48:19;;;;;;;8.68;8.07;;;;;;;;;;4978394;28;20031;-64
2022/10/08 09:50:51;;;;;;;7.90;7.30;;;;;;;;;;4978561;28;20042;-64
2022/10/08 09:53:17;;;;;;;8.23;7.55;;;;;;;;;;4979455;28;20045;-63
2022/10/08 09:55:57;;;;;;;8.00;7.40;;;;;;;;;;4979728;28;20038;-65
2022/10/08 09:58:22;;;;;;;8.10;7.55;;;;;;;;;;4979649;28;20034;-64
2022/10/08 10:00:57;;;;;;;8.20;7.60;;;;;;;;;;4980339;28;20507;-64
2022/10/08 10:03:25;;;;;;;9.30;8.70;;;;;;;;;;4978935;28;20034;-64
2022/10/08 10:05:52;;;;;;;8.43;7.82;;;;;;;;;;4977965;28;20373;-64
2022/10/08 10:08:39;;;;;;;8.43;7.88;;;;;;;;;;4978921;28;20653;-64
2022/10/08 10:11:05;;;;;;;11.18;10.38;;;;;;;;;;4977498;28;20045;-63
2022/10/08 10:13:37;;;;;;;10.88;10.18;;;;;;;;;;4976755;28;20428;-63
2022/10/08 10:16:25;;;;;;;8.60;8.10;;;;;;;;;;4980375;28;20026;-65
2022/10/08 10:19:02;;;;;;;10.60;9.93;;;;;;;;;;4977571;28;20539;-64
2022/10/08 10:21:58;;;;;;;10.88;10.20;;;;;;;;;;4980310;28;20042;-64
2022/10/08 10:24:44;;;;;;;10.30;9.60;;;;;;;;;;4981448;28;20081;-65
2022/10/08 10:27:23;;;;;;;11.77;9.70;;;;;;;;;;4982789;28;20372;-65
2022/10/08 10:30:01;;;;;;;9.75;9.15;;;;;;;;;;4977018;28;20105;-65
2022/10/08 10:32:33;;;;;;;9.80;9.20;;;;;;;;;;4983079;28;20504;-65
2022/10/08 10:35:11;;;;;;;9.88;9.18;;;;;;;;;;4982696;28;20186;-65
2022/10/08 10:37:43;;;;;;;11.82;11.10;;;;;;;;;;4978661;28;20027;-65
2022/10/08 10:40:40;;;;;;;9.57;8.98;;;;;;;;;;4975109;28;20038;-65
2022/10/08 10:43:27;;;;;;;12.07;11.35;;;;;;;;;;4979185;28;20049;-64
2022/10/08 10:45:59;;;;;;;12.52;11.73;;;;;;;;;;4975943;28;20043;-65
2022/10/08 10:48:25;;;;;;;13.32;12.52;;;;;;;;;;4979341;28;20113;-65
2022/10/08 10:51:16;;;;;;;13.23;12.43;;;;;;;;;;4978019;28;20495;-65
2022/10/08 10:53:56;;;;;;;13.23;12.43;;;;;;;;;;4974911;28;20731;-66
2022/10/08 10:56:27;;;;;;;13.60;12.80;;;;;;;;;;4975687;28;20147;-66
2022/10/08 10:59:21;;;;;;;13.10;12.32;;;;;;;;;;4975765;28;20266;-67
2022/10/08 11:01:51;;;;;;;14.70;13.90;;;;;;;;;;4977379;28;20045;-66
2022/10/08 11:04:57;;;;;;;15.05;14.23;;;;;;;;;;4978897;28;20030;-66
2022/10/08 11:07:48;;;;;;;17.95;16.95;;;;;;;;;;4972780;28;20055;-66
2022/10/08 11:10:50;;;;;;;20.63;19.23;;;;;;;;;;4973042;28;20062;-66
2022/10/08 11:13:46;;;;;;;15.48;14.27;;;;;;;;;;4974043;28;20053;-64
2022/10/08 11:16:27;;;;;;;13.95;13.15;;;;;;;;;;4975183;28;20491;-66
2022/10/08 11:18:58;;;;;;;14.18;13.38;;;;;;;;;;4973941;28;20468;-65
2022/10/08 11:21:35;;;;;;;16.45;15.45;;;;;;;;;;4974393;28;20157;-66
2022/10/08 11:24:15;;;;;;;14.52;13.68;;;;;;;;;;4975947;28;20090;-66
2022/10/08 11:27:05;;;;;;;14.88;13.75;;;;;;;;;;4974132;28;20038;-66
2022/10/08 11:29:38;;;;;;;12.68;11.88;;;;;;;;;;4974849;28;20031;-65
2022/10/08 11:32:11;;;;;;;12.57;11.68;;;;;;;;;;4983137;28;20039;-66
2022/10/08 11:34:38;;;;;;;15.98;15.07;;;;;;;;;;4975108;28;20097;-66
2022/10/08 11:37:39;;;;;;;14.75;13.85;;;;;;;;;;4973746;28;20893;-66
2022/10/08 11:40:18;;;;;;;12.77;12.07;;;;;;;;;;4977945;28;20045;-65
2022/10/08 11:43:23;;;;;;;14.38;13.57;;;;;;;;;;4974166;28;20031;-65
2022/10/08 11:46:21;;;;;;;15.57;14.68;;;;;;;;;;4963510;28;20046;-65
2022/10/08 11:48:48;;;;;;;14.38;13.50;;;;;;;;;;4981861;28;20108;-67
2022/10/08 11:51:19;;;;;;;14.70;13.85;;;;;;;;;;4991054;28;20050;-67
2022/10/08 11:54:16;;;;;;;14.68;13.77;;;;;;;;;;4979911;28;20069;-67
2022/10/08 11:56:45;;;;;;;12.73;11.95;;;;;;;;;;4944971;28;20504;-67
2022/10/08 11:59:38;;;;;;;14.82;13.93;;;;;;;;;;4979066;28;20088;-67
2022/10/08 12:02:20;;;;;;;13.80;13.00;;;;;;;;;;4982949;28;20063;-67
2022/10/08 12:04:47;;;;;;;13.25;12.45;;;;;;;;;;4980498;28;20539;-67
2022/10/08 12:07:34;;;;;;;13.65;12.85;;;;;;;;;;4983112;28;20089;-67
2022/10/08 12:10:06;;;;;;;13.93;12.95;;;;;;;;;;4982122;28;20027;-66
2022/10/08 12:12:49;;;;;;;15.20;14.30;;;;;;;;;;4982611;28;20042;-65
2022/10/08 12:15:24;;;;;;;15.75;14.85;;;;;;;;;;4979567;28;20035;-65
2022/10/08 12:18:21;;;;;;;15.75;14.85;;;;;;;;;;4982043;28;20026;-64
2022/10/08 12:21:15;;;;;;;15.55;14.65;;;;;;;;;;4978800;28;20042;-65
2022/10/08 12:23:42;;;;;;;15.00;14.10;;;;;;;;;;4980385;28;20106;-65
2022/10/08 12:26:11;;;;;;;15.35;14.45;;;;;;;;;;4980631;28;20038;-64
2022/10/08 12:28:49;;;;;;;14.02;13.23;;;;;;;;;;4980713;28;20035;-64
2022/10/08 12:31:34;;;;;;;13.27;12.48;;;;;;;;;;4983499;28;20196;-64
2022/10/08 12:34:15;;;;;;;12.93;12.20;;;;;;;;;;4976927;28;20096;-63
2022/10/08 12:37:11;;;;;;;13.05;12.27;;;;;;;;;;4978688;28;20031;-64
2022/10/08 12:39:41;;;;;;;11.73;11.02;;;;;;;;;;4979414;28;20030;-64
2022/10/08 12:42:11;;;;;;;;;;;;;;;;;;4975972;28;20038;-64
2022/10/08 12:44:59;;;;;;;10.95;10.25;;;;;;;;;;4978575;28;20016;-64
2022/10/08 12:47:37;;;;;;;13.02;12.20;;;;;;;;;;4978685;28;20038;-64
2022/10/08 12:50:28;;;;;;;13.23;12.43;;;;;;;;;;4963916;28;20030;-64
2022/10/08 12:52:54;;;;;;;13.48;12.27;;;;;;;;;;4977557;28;20043;-64
2022/10/08 12:55:22;;;;;;;13.35;12.57;;;;;;;;;;4979529;28;20046;-64
2022/10/08 12:57:49;;;;;;;12.88;11.98;;;;;;;;;;4993271;28;20372;-64
2022/10/08 13:00:22;;;;;;;14.48;13.68;;;;;;;;;;4982482;28;20393;-64
2022/10/08 13:03:03;;;;;;;13.55;12.75;;;;;;;;;;4977580;28;20052;-64
2022/10/08 13:05:38;;;;;;;14.18;13.27;;;;;;;;;;4978155;28;20053;-64
2022/10/08 13:08:33;;;;;;;14.90;14.02;;;;;;;;;;4976588;28;20045;-64
2022/10/08 13:11:01;;;;;;;11.70;11.00;;;;;;;;;;4993551;28;20364;-64
2022/10/08 13:13:39;;;;;;;14.93;14.13;;;;;;;;;;4978013;28;20064;-64
2022/10/08 13:16:06;;;;;;;17.08;16.08;;;;;;;;;;4981708;28;20364;-64
2022/10/08 13:18:34;;;;;;;17.13;16.20;;;;;;;;;;4976432;28;20163;-64
2022/10/08 13:21:06;;;;;;;19.75;18.58;;;;;;;;;;4974235;28;20385;-63
2022/10/08 13:23:38;;;;;;;16.75;15.85;;;;;;;;;;4981258;28;20107;-63
2022/10/08 13:26:03;;;;;;;21.90;20.70;;;;;;;;;;4979861;28;20275;-63
2022/10/08 13:28:28;;;;;;;20.58;19.42;;;;;;;;;;4980263;28;20478;-63
2022/10/08 13:30:58;;;;;;;17.90;16.70;;;;;;;;;;4981666;28;20034;-63
2022/10/08 13:33:28;;;;;;;24.20;22.90;;;;;;;;;;4978113;28;20396;-63
2022/10/08 13:36:00;;;;;;;21.38;20.17;;;;;;;;;;4978499;28;20030;-62
2022/10/08 13:38:29;;;;;;;23.73;22.42;;;;;;;;;;4979262;28;20089;-63
2022/10/08 13:41:01;;;;;;;21.77;20.60;;;;;;;;;;4978348;28;20057;-62
2022/10/08 13:43:27;;;;;;;19.20;18.17;;;;;;;;;;4975027;28;20106;-62
2022/10/08 13:45:53;;;;;;;17.02;16.02;;;;;;;;;;4978673;28;20046;-62
2022/10/08 13:48:18;;;;;;;16.25;15.15;;;;;;;;;;4976298;28;20092;-62
2022/10/08 13:50:45;;;;;;;15.13;14.23;;;;;;;;;;4978864;28;20481;-62
2022/10/08 13:53:12;;;;;;;15.25;14.35;;;;;;;;;;4990168;28;20369;-62
2022/10/08 13:55:41;;;;;;;17.63;16.63;;;;;;;;;;4977110;28;20057;-62
2022/10/08 13:58:07;;;;;;;13.85;13.05;;;;;;;;;;4977970;28;20041;-62
2022/10/08 14:00:35;;;;;;;18.80;17.80;;;;;;;;;;4978125;28;20267;-62
2022/10/08 14:03:00;;;;;;;23.35;22.13;;;;;;;;;;4977500;28;20388;-62
2022/10/08 14:05:28;;;;;;;22.02;20.77;;;;;;;;;;4978828;28;20031;-62
2022/10/08 14:08:05;;;;;;;22.00;20.83;;;;;;;;;;4983196;28;20069;-62
2022/10/08 14:10:31;;;;;;;22.08;20.88;;;;;;;;;;4977593;28;20492;-62
2022/10/08 14:12:57;;;;;;;18.98;17.55;;;;;;;;;;4977241;28;20084;-62
2022/10/08 14:15:23;;;;;;;18.02;16.98;;;;;;;;;;4975778;28;20035;-65
2022/10/08 14:17:49;;;;;;;17.95;16.85;;;;;;;;;;4978803;28;20031;-65
2022/10/08 14:20:15;;;;;;;18.88;17.67;;;;;;;;;;4978004;28;20042;-66
2022/10/08 14:22:40;;;;;;;16.23;15.27;;;;;;;;;;4982556;28;20049;-66
2022/10/08 14:25:13;;;;;;;15.98;15.02;;;;;;;;;;4979953;28;20415;-65
2022/10/08 14:27:38;;;;;;;15.70;14.80;;;;;;;;;;4980905;28;20045;-66
2022/10/08 14:30:04;;;;;;;17.23;16.27;;;;;;;;;;4980302;28;20038;-67
2022/10/08 14:32:29;;;;;;;17.63;16.63;;;;;;;;;;4977084;28;20113;-63
2022/10/08 14:34:54;;;;;;;16.92;15.93;;;;;;;;;;4977763;28;20885;-64
2022/10/08 14:37:20;;;;;;;15.80;14.90;;;;;;;;;;4974699;28;20548;-64
2022/10/08 14:39:45;;;;;;;16.80;15.60;;;;;;;;;;4977999;28;20026;-65
2022/10/08 14:42:10;;;;;;;15.73;14.82;;;;;;;;;;4976572;28;20046;-66
2022/10/08 14:44:36;;;;;;;16.17;15.07;;;;;;;;;;4975649;28;20106;-65
2022/10/08 14:47:01;;;;;;;17.23;15.65;;;;;;;;;;4977296;28;20042;-63
2022/10/08 14:49:26;;;;;;;16.17;15.07;;;;;;;;;;4977733;28;20153;-64
2022/10/08 14:51:52;;;;;;;16.08;15.07;;;;;;;;;;4982006;28;20080;-64